createdAt,value
2022-11-02T05:00:30.095Z,3.90
2022-11-02T05:11:34.953Z,1.80
2022-11-02T05:22:34.815Z,2.20
2022-11-02T05:33:34.703Z,2.20
2022-11-02T05:44:34.571Z,1.60
2022-11-02T05:55:34.437Z,1.90
2022-11-02T06:06:34.391Z,1.70
2022-11-02T06:17:34.186Z,2.00
2022-11-02T06:28:34.060Z,2.10
2022-11-02T06:39:34.064Z,1.90
2022-11-02T06:50:33.821Z,2.40
2022-11-02T07:01:33.930Z,2.00
2022-11-02T07:12:33.563Z,3.00
2022-11-02T07:23:33.471Z,2.50
2022-11-02T07:34:33.329Z,2.00
2022-11-02T07:45:33.203Z,2.30
2022-11-02T07:56:33.079Z,1.80
2022-11-02T08:07:32.951Z,1.80
2022-11-02T08:18:32.820Z,1.70
2022-11-02T08:29:32.690Z,1.90
2022-11-02T08:40:32.569Z,1.90
2022-11-02T08:51:32.447Z,1.90
2022-11-02T09:02:32.395Z,3.10
2022-11-02T09:13:32.264Z,2.40
2022-11-02T09:24:32.075Z,1.70
2022-11-02T09:35:31.960Z,2.50
2022-11-02T09:46:31.834Z,2.90
2022-11-02T09:57:31.703Z,2.10
2022-11-02T10:08:31.568Z,1.90
2022-11-02T10:19:31.437Z,2.20
2022-11-02T10:30:31.316Z,4.70
2022-11-02T10:41:31.191Z,2.10
2022-11-02T10:52:31.068Z,2.40
2022-11-02T11:03:30.956Z,1.90
2022-11-02T11:25:30.696Z,2.60
2022-11-02T11:36:30.873Z,2.00
2022-11-02T11:47:30.459Z,1.00
2022-11-02T11:58:30.336Z,1.10
2022-11-02T12:09:30.225Z,3.00
2022-11-02T12:20:30.085Z,1.30
2022-11-02T12:31:29.950Z,1.20
2022-11-02T12:42:29.820Z,1.10
2022-11-02T12:53:29.713Z,1.70
2022-11-02T13:04:31.891Z,1.20
2022-11-02T13:15:29.542Z,1.20
2022-11-02T13:26:29.336Z,1.80
2022-11-02T13:37:29.212Z,1.30
2022-11-02T13:48:29.098Z,1.40
2022-11-02T13:59:28.983Z,0.90
2022-11-02T14:10:28.833Z,0.90
2022-11-02T14:21:28.719Z,1.60
2022-11-02T14:32:28.608Z,1.90
2022-11-02T14:43:28.467Z,1.80
2022-11-02T14:54:28.360Z,1.20
2022-11-02T15:05:28.221Z,1.10
2022-11-02T15:16:28.110Z,1.30
2022-11-02T15:27:27.963Z,1.50
2022-11-02T15:38:32.612Z,1.80
2022-11-02T15:49:27.717Z,2.40
2022-11-02T16:00:27.589Z,1.80
2022-11-02T16:11:27.479Z,2.00
2022-11-02T16:22:27.336Z,2.10
2022-11-02T16:33:27.217Z,2.10
2022-11-02T16:44:27.088Z,2.10
2022-11-02T16:55:26.976Z,2.40
2022-11-02T17:06:26.844Z,1.80
2022-11-02T17:17:26.746Z,3.00
2022-11-02T17:28:26.585Z,3.60
2022-11-02T17:39:26.460Z,4.50
2022-11-02T17:50:26.330Z,4.90
2022-11-02T18:01:26.379Z,4.60
2022-11-02T18:12:27.097Z,4.70
2022-11-02T18:23:25.970Z,4.80
2022-11-02T18:34:25.837Z,4.80
2022-11-02T18:45:25.739Z,5.00
2022-11-02T18:56:25.598Z,3.30
2022-11-02T19:07:25.467Z,4.20
2022-11-02T19:18:25.624Z,5.10
2022-11-02T19:29:25.218Z,4.30
2022-11-02T19:40:25.100Z,3.50
2022-11-02T19:51:24.967Z,3.10
2022-11-02T20:02:24.868Z,3.40
2022-11-02T20:13:24.731Z,3.80
2022-11-02T20:24:24.602Z,3.30
2022-11-02T20:35:24.479Z,5.60
2022-11-02T20:46:37.160Z,4.90
2022-11-02T20:57:24.232Z,7.50
2022-11-02T21:08:24.162Z,7.10
2022-11-02T21:19:23.968Z,7.20
2022-11-02T21:30:23.856Z,7.70
2022-11-02T21:41:23.733Z,7.20
2022-11-02T21:52:23.595Z,5.50
